Historyczne dane pomiarowe

Dodano dane terminowe – wersja testowa.

Dane z okresu 1951-2019

Wersja bazy: 1.34 [2019-03-16, lista zmian], aktualizacja planowana na 2019-04-15

Dane meteo z obszaru Polski uzyskane na podstawie danych udostępnionych przez Instytut Meteorologii i Gospodarki Wodnej – Państwowy Instytut Badawczy.

 

Wybierz Datę:    

       

TemperaturaWilgotnośćWiatrCiśnienieOpadyŚniegCzas trwania zjawisk
 Stacja t tx tn tng RH VA  wxwx mslp ppp RRR   cm mm wxwxwxwxwxwxwx
1961-08-14 14.0 19.7 8.2--- 6.3 1.3---- 0.5------------
1961-08-13 13.0 17.4 11.1--- 5.3 2.7---- 0.0------------
1961-08-12 15.8 20.4 14.0--- 4.3 1.0---- 0.0------------
1961-08-11 16.3 21.2 15.5--- 5.7 2.7---- 2.7------------
1961-08-10 19.9 25.4 16.6--- 7.3 2.7---- 6.7------------
1961-08-09 19.8 23.8 14.5--- 3.3 2.0---- 0.0------------
1961-08-08 18.1 22.0 6.9--- 4.7 1.7---- 0.0------------
1961-08-07 16.7 22.4 14.2--- 6.0 2.7---- 0.3------------
1961-08-06 22.4 28.3 16.0--- 2.7 2.3---- 1.6------------
1961-08-05 19.5 25.0 14.3--- 5.3 2.3---- 0.0------------
1961-08-04 14.9 16.2 7.2--- 5.7 3.0---- 1.1------------
1961-08-03 12.5 18.2 10.2--- 4.3 2.7---- 0.0------------
1961-08-02 15.6 20.3 9.0--- 5.7 0.7---- 0.0------------
1961-08-01 14.1 19.7 11.1--- 5.3 3.7---- 0.0------------
1961-07-31 13.7 16.5 12.0--- 8.0 3.3---- 15.3------------
1961-07-30 14.3 17.2 11.2--- 5.7 3.7---- 1.1------------
1961-07-29 13.1 17.2 10.0--- 6.0 2.3---- 0.0------------
1961-07-28 14.3 17.3 13.5--- 8.0 2.0---- 1.3------------
1961-07-27 18.0 22.7 15.3--- 5.0 2.0---- 4.6------------
1961-07-26 18.9 24.3 13.0--- 3.7 3.0---- 0.0------------
1961-07-25 14.4 19.0 12.0--- 8.0 1.3---- 0.0------------
1961-07-24 13.3 15.6 11.7--- 7.3 2.3---- 0.0------------
1961-07-23 14.2 17.0 12.2--- 8.0 2.3---- 0.0------------
1961-07-22 13.9 16.6 13.3--- 8.0 2.0---- 0.0------------
1961-07-21 14.0 17.0 13.3--- 8.0 2.3---- 5.4------------
1961-07-20 15.2 20.0 11.0--- 7.3 2.7---- 0.5------------
1961-07-19 14.9 20.3 11.5--- 5.7 2.0---- 0.4------------
1961-07-18 14.8 19.7 12.3--- 6.3 1.3---- 0.0------------
1961-07-17 13.8 16.0 8.0--- 8.0 1.3---- 2.8------------
1961-07-16 15.8 23.0 12.5--- 4.3 1.7---- 1.1------------
1961-07-15 18.4 23.6 12.6--- 5.0 2.0---- 0.0------------
1961-07-14 14.4 20.8 11.0--- 8.0 2.7---- 1.1------------
1961-07-13 17.1 24.0 15.6--- 6.7 2.7---- 2.9------------
1961-07-12 21.5 26.2 12.6--- 4.0 3.0---- 0.0------------
1961-07-11 17.4 21.7 10.0--- 5.7 2.3---- 0.3------------
1961-07-10 12.8 16.4 10.1--- 7.3 2.3---- 0.3------------
1961-07-09 14.3 17.7 12.0--- 7.7 3.7---- 6.0------------
1961-07-08 17.0 23.0 9.0--- 7.3 2.3---- 14.2------------
1961-07-07 12.8 17.9 8.2--- 5.3 2.7---- 0.0------------
1961-07-06 11.6 17.5 7.8--- 8.0 4.7---- 8.1------------
1961-07-05 12.2 17.2 10.5--- 7.0 3.0---- 5.7------------
1961-07-04 14.3 20.3 12.3--- 6.0 2.3---- 7.3------------
1961-07-03 22.4 33.1 15.4--- 5.7 2.7---- 0.0------------
1961-07-02 25.5 31.3 13.1--- 0.7 1.3---- 0.0------------
1961-07-01 23.0 29.3 12.0--- 0.0 1.3---- 0.0------------
1961-06-30 20.8 26.6 9.3--- 0.3 1.3---- 0.0------------
1961-06-29 16.4 22.6 10.2--- 3.0 2.3---- 0.0------------
1961-06-28 15.0 18.7 11.0--- 3.3 4.3---- 0.0------------
1961-06-27 20.1 24.4 17.2--- 8.0 3.7---- 4.6------------
1961-06-26 23.4 29.9 12.3--- 2.7 1.3---- 0.0------------
1961-06-25 22.9 28.8 15.7--- 1.3 2.0---- 0.0------------
1961-06-24 19.7 25.2 13.2--- 4.0 3.3---- 0.0------------
1961-06-23 17.7 22.6 12.0--- 3.3 2.3---- 0.0------------
1961-06-22 18.3 23.2 6.9--- 2.0 1.7---- 0.0------------
1961-06-21 14.1 20.7 6.0--- 5.0 2.0---- 0.0------------
1961-06-20 13.6 19.6 6.7--- 1.0 2.0---- 0.0------------
1961-06-19 15.3 20.6 13.7--- 2.3 3.0---- 0.0------------
1961-06-18 20.9 27.9 13.1--- 3.0 4.0---- 0.0------------
1961-06-17 17.7 23.5 7.4--- 3.0 2.3---- 0.0------------
1961-06-16 13.2 18.7 8.6--- 1.7 2.3---- 0.0------------
289.0 ms

 

Źródłem pochodzenia danych jest Instytut Meteorologii i Gospodarki Wodnej – Państwowy Instytut Badawczy. Dane Instytutu Meteorologii i Gospodarki Wodnej – Państwowego Instytutu Badawczego zostały przetworzone.

Dane źródłowe można odnaleźć na stronie https://dane.imgw.pl